createdAt,value
2017-04-22T00:00:59.306Z,11.52
2017-04-22T00:02:40.273Z,11.52
2017-04-22T00:03:49.176Z,11.56
2017-04-22T00:04:58.406Z,11.52
2017-04-22T00:06:07.649Z,11.57
2017-04-22T00:07:16.863Z,11.43
2017-04-22T00:08:25.764Z,11.53
2017-04-22T00:09:34.982Z,11.53
2017-04-22T00:10:44.200Z,11.46
2017-04-22T00:11:52.780Z,11.57
2017-04-22T00:13:01.371Z,11.56
2017-04-22T00:14:10.347Z,11.46
2017-04-22T00:15:19.247Z,11.51
2017-04-22T00:16:27.860Z,11.43
2017-04-22T00:17:36.494Z,11.43
2017-04-22T00:18:45.776Z,11.42
2017-04-22T00:19:54.998Z,11.46
2017-04-22T00:21:03.942Z,11.45
2017-04-22T00:22:13.187Z,11.45
2017-04-22T00:23:22.087Z,11.53
2017-04-22T00:24:31.295Z,11.57
2017-04-22T00:25:39.886Z,11.51
2017-04-22T00:26:49.144Z,11.46
2017-04-22T00:27:58.372Z,11.35
2017-04-22T00:29:07.906Z,11.41
2017-04-22T00:30:16.814Z,11.41
2017-04-22T00:31:26.106Z,11.43
2017-04-22T00:32:34.689Z,11.34
2017-04-22T00:33:43.662Z,11.39
2017-04-22T00:34:52.666Z,11.35
2017-04-22T00:36:01.243Z,11.34
2017-04-22T00:37:10.276Z,11.38
2017-04-22T00:38:19.175Z,11.34
2017-04-22T00:39:28.399Z,11.3
2017-04-22T00:40:37.305Z,11.28
2017-04-22T00:41:46.524Z,11.23
2017-04-22T00:42:55.743Z,11.31
2017-04-22T00:44:05.756Z,11.23
2017-04-22T00:45:14.681Z,11.31
2017-04-22T00:46:24.242Z,11.28
2017-04-22T00:47:33.823Z,11.34
2017-04-22T00:48:43.073Z,11.21
2017-04-22T00:49:51.688Z,11.35
2017-04-22T00:51:00.913Z,11.2
2017-04-22T00:52:10.841Z,11.26
2017-04-22T00:53:20.057Z,11.26
2017-04-22T00:54:28.961Z,11.23
2017-04-22T00:55:37.868Z,11.2
2017-04-22T00:56:47.454Z,11.24
2017-04-22T00:57:56.674Z,11.23
2017-04-22T00:59:05.587Z,11.23
2017-04-22T01:00:14.834Z,11.2
2017-04-22T01:01:24.316Z,11.21
2017-04-22T01:02:33.534Z,11.2
2017-04-22T01:03:42.121Z,11.24
2017-04-22T01:04:51.668Z,11.26
2017-04-22T01:06:00.875Z,11.13
2017-04-22T01:07:09.782Z,11.21
2017-04-22T01:08:19.257Z,11.15
2017-04-22T01:09:28.478Z,11.15
2017-04-22T01:10:37.741Z,11.15
2017-04-22T01:11:46.646Z,11.16
2017-04-22T01:12:55.555Z,11.08
2017-04-22T01:14:04.784Z,11.13
2017-04-22T01:15:14.182Z,11.08
2017-04-22T01:16:24.030Z,10.97
2017-04-22T01:17:33.269Z,11.09
2017-04-22T01:18:42.232Z,11.08
2017-04-22T01:19:51.554Z,11.08
2017-04-22T01:21:00.471Z,11.03
2017-04-22T01:22:09.883Z,11.03
2017-04-22T01:23:18.901Z,11.05
2017-04-22T01:24:28.461Z,11.06
2017-04-22T01:25:37.049Z,11.09
2017-04-22T01:26:46.175Z,11.03
2017-04-22T01:27:55.071Z,11
2017-04-22T01:29:03.970Z,11.06
2017-04-22T01:30:12.583Z,11.03
2017-04-22T01:31:21.838Z,10.94
2017-04-22T01:32:30.736Z,10.91
2017-04-22T01:33:40.281Z,10.94
2017-04-22T01:34:48.911Z,10.95
2017-04-22T01:35:58.445Z,10.84
2017-04-22T01:37:07.025Z,10.77
2017-04-22T01:38:16.245Z,10.67
2017-04-22T01:39:24.833Z,10.42
2017-04-22T01:40:34.057Z,10.33
2017-04-22T01:41:42.640Z,10.21
2017-04-22T01:42:51.529Z,10.17
2017-04-22T01:44:00.433Z,10.13
2017-04-22T01:45:09.648Z,10.08
2017-04-22T01:46:18.715Z,10
2017-04-22T01:47:28.020Z,9.96
2017-04-22T01:48:36.925Z,9.89
2017-04-22T01:49:46.143Z,9.72
2017-04-22T01:50:55.355Z,9.71
2017-04-22T01:52:04.596Z,9.66
2017-04-22T01:53:13.807Z,9.67
2017-04-22T01:54:22.390Z,9.62
2017-04-22T01:55:31.608Z,9.52
2017-04-22T01:56:40.294Z,9.5
2017-04-22T01:57:49.189Z,9.41
2017-04-22T01:58:57.779Z,9.35
2017-04-22T02:00:06.685Z,9.29
2017-04-22T02:01:15.654Z,9.29
2017-04-22T02:02:24.232Z,9.24
2017-04-22T02:03:33.838Z,9.17
2017-04-22T02:04:42.893Z,9.12
2017-04-22T02:05:52.113Z,9.2
2017-04-22T02:07:01.642Z,9.12
2017-04-22T02:08:11.173Z,9.11
2017-04-22T02:09:19.784Z,9.05
2017-04-22T02:10:29.335Z,9.01
2017-04-22T02:11:38.229Z,8.98
2017-04-22T02:12:47.126Z,8.85
2017-04-22T02:13:55.708Z,8.94
2017-04-22T02:15:04.620Z,8.92
2017-04-22T02:16:13.607Z,8.85
2017-04-22T02:17:22.877Z,8.92
2017-04-22T02:18:31.813Z,8.86
2017-04-22T02:19:40.394Z,8.86
2017-04-22T02:20:49.619Z,8.94
2017-04-22T02:21:58.601Z,8.8
2017-04-22T02:23:07.494Z,8.87
2017-04-22T02:24:17.284Z,8.9
2017-04-22T02:25:26.594Z,8.79
2017-04-22T02:26:36.442Z,8.8
2017-04-22T02:27:45.033Z,8.79
2017-04-22T02:28:53.936Z,8.74
2017-04-22T02:30:02.921Z,8.72
2017-04-22T02:31:12.138Z,8.72
2017-04-22T02:32:21.094Z,8.8
2017-04-22T02:33:30.316Z,8.71
2017-04-22T02:34:39.536Z,8.68
2017-04-22T02:35:49.395Z,8.69
2017-04-22T02:36:58.095Z,8.69
2017-04-22T02:38:07.362Z,8.72
2017-04-22T02:39:16.301Z,8.64
2017-04-22T02:40:25.542Z,8.65
2017-04-22T02:41:34.230Z,8.64
2017-04-22T02:42:43.133Z,8.69
2017-04-22T02:43:52.378Z,8.62
2017-04-22T02:45:01.597Z,8.61
2017-04-22T02:46:10.497Z,8.6
2017-04-22T02:47:19.218Z,8.62
2017-04-22T02:48:28.119Z,8.53
2017-04-22T02:49:37.517Z,8.52
2017-04-22T02:50:46.421Z,8.5
2017-04-22T02:51:55.422Z,8.52
2017-04-22T02:53:04.323Z,8.4
2017-04-22T02:54:13.223Z,8.46
2017-04-22T02:55:21.895Z,8.52
2017-04-22T02:56:31.114Z,8.54
2017-04-22T02:57:39.705Z,8.44
2017-04-22T02:58:49.061Z,8.46
2017-04-22T02:59:58.050Z,8.49
2017-04-22T03:01:07.269Z,8.54
2017-04-22T03:02:15.853Z,8.54
2017-04-22T03:03:25.065Z,8.52
2017-04-22T03:04:34.292Z,8.36
2017-04-22T03:05:43.829Z,8.39
2017-04-22T03:06:53.046Z,8.35
2017-04-22T03:08:01.961Z,8.34
2017-04-22T03:09:10.860Z,8.32
2017-04-22T03:10:20.051Z,8.24
2017-04-22T03:11:28.644Z,8.35
2017-04-22T03:12:37.855Z,8.36
2017-04-22T03:13:47.074Z,8.36
2017-04-22T03:14:55.988Z,8.35
2017-04-22T03:16:05.206Z,8.24
2017-04-22T03:17:14.111Z,8.24
2017-04-22T03:18:23.330Z,8.13
2017-04-22T03:19:32.548Z,8.21
2017-04-22T03:20:41.454Z,8.13
2017-04-22T03:21:50.356Z,8.19
2017-04-22T03:22:59.568Z,8.19
2017-04-22T03:24:08.146Z,8.25
2017-04-22T03:25:17.059Z,8.19
2017-04-22T03:26:26.601Z,8.1
2017-04-22T03:27:36.137Z,8.16
2017-04-22T03:28:45.096Z,8.21
2017-04-22T03:29:54.632Z,8.17
2017-04-22T03:31:03.535Z,8.14
2017-04-22T03:32:12.312Z,8.19
2017-04-22T03:33:21.643Z,8.25
2017-04-22T03:34:30.539Z,8.29
2017-04-22T03:35:39.116Z,8.28
2017-04-22T03:36:47.695Z,8.28
2017-04-22T03:37:56.908Z,8.36
2017-04-22T03:39:09.463Z,8.35
2017-04-22T03:40:18.362Z,8.28
2017-04-22T03:41:27.272Z,8.24
2017-04-22T03:42:36.348Z,8.31
2017-04-22T03:43:45.083Z,8.22
2017-04-22T03:44:54.440Z,8.25
2017-04-22T03:46:03.656Z,8.31
2017-04-22T03:47:12.698Z,8.28
2017-04-22T03:48:21.682Z,8.24
2017-04-22T03:49:30.903Z,8.26
2017-04-22T03:50:40.117Z,8.19
2017-04-22T03:51:49.337Z,8.25
2017-04-22T03:52:57.938Z,8.16
2017-04-22T03:54:06.840Z,8.19
2017-04-22T03:55:15.738Z,8.26
2017-04-22T03:56:24.631Z,8.24
2017-04-22T03:57:33.522Z,8.26
2017-04-22T03:58:43.113Z,8.28
2017-04-22T03:59:52.111Z,8.28
2017-04-22T04:01:01.324Z,8.4
2017-04-22T04:02:10.548Z,8.34
2017-04-22T04:03:19.766Z,8.36
2017-04-22T04:04:28.353Z,8.35
2017-04-22T04:05:37.578Z,8.34
2017-04-22T04:06:46.479Z,8.31
2017-04-22T04:07:56.022Z,8.36
2017-04-22T04:09:04.927Z,8.36
2017-04-22T04:10:13.821Z,8.34
2017-04-22T04:11:22.413Z,8.25
2017-04-22T04:12:31.417Z,8.28
2017-04-22T04:13:40.317Z,8.35
2017-04-22T04:14:49.852Z,8.31
2017-04-22T04:15:58.435Z,8.31
2017-04-22T04:17:08.397Z,8.32
2017-04-22T04:18:17.615Z,8.32
2017-04-22T04:19:26.838Z,8.35
2017-04-22T04:20:35.469Z,8.34
2017-04-22T04:21:44.067Z,8.36
2017-04-22T04:22:52.679Z,8.24
2017-04-22T04:24:01.947Z,8.31
2017-04-22T04:25:10.941Z,8.36
2017-04-22T04:26:20.157Z,8.36
2017-04-22T04:27:29.389Z,8.4
2017-04-22T04:28:38.605Z,8.32
2017-04-22T04:29:47.834Z,8.39
2017-04-22T04:30:56.737Z,8.36
2017-04-22T04:32:05.310Z,8.4
2017-04-22T04:33:14.209Z,8.5
2017-04-22T04:34:22.799Z,8.36
2017-04-22T04:35:31.385Z,8.39
2017-04-22T04:36:40.922Z,8.43
2017-04-22T04:37:50.145Z,8.42
2017-04-22T04:38:58.722Z,8.44
2017-04-22T04:40:07.940Z,8.39
2017-04-22T04:41:17.474Z,8.4
2017-04-22T04:42:26.056Z,8.46
2017-04-22T04:43:34.954Z,8.35
2017-04-22T04:44:43.672Z,8.43
2017-04-22T04:45:52.900Z,8.36
2017-04-22T04:47:01.940Z,8.53
2017-04-22T04:48:11.480Z,8.46
2017-04-22T04:49:20.384Z,8.35
2017-04-22T04:50:29.922Z,8.35
2017-04-22T04:51:38.510Z,8.34
2017-04-22T04:52:47.405Z,8.46
2017-04-22T04:53:55.989Z,8.36
2017-04-22T04:55:04.565Z,8.36
2017-04-22T04:56:13.470Z,8.39
2017-04-22T04:57:22.379Z,8.39
2017-04-22T04:58:31.280Z,8.35
2017-04-22T04:59:41.131Z,8.36
2017-04-22T05:00:50.028Z,8.43
2017-04-22T05:01:58.927Z,8.46
2017-04-22T05:03:08.141Z,8.46
2017-04-22T05:04:17.479Z,8.44
2017-04-22T05:05:26.057Z,8.49
2017-04-22T05:06:35.274Z,8.44
2017-04-22T05:07:44.810Z,8.53
2017-04-22T05:08:54.036Z,8.49
2017-04-22T05:10:03.576Z,8.57
2017-04-22T05:11:13.110Z,8.53
2017-04-22T05:12:22.331Z,8.67
2017-04-22T05:13:31.862Z,8.62
2017-04-22T05:14:41.086Z,8.64
2017-04-22T05:15:49.961Z,8.74
2017-04-22T05:16:58.864Z,8.64
2017-04-22T05:18:07.764Z,8.64
2017-04-22T05:19:16.972Z,8.67
2017-04-22T05:20:25.555Z,8.67
2017-04-22T05:21:35.087Z,8.72
2017-04-22T05:22:44.624Z,8.76
2017-04-22T05:23:53.625Z,8.83
2017-04-22T05:25:02.520Z,8.82
2017-04-22T05:26:11.416Z,8.79
2017-04-22T05:27:20.638Z,8.94
2017-04-22T05:28:29.215Z,8.92
2017-04-22T05:29:38.561Z,8.89
2017-04-22T05:30:47.142Z,8.9
2017-04-22T05:31:56.359Z,8.89
2017-04-22T05:33:05.647Z,9.04
2017-04-22T05:34:14.872Z,9.03
2017-04-22T05:35:24.096Z,9.14
2017-04-22T05:36:32.680Z,9.21
2017-04-22T05:37:41.894Z,9.24
2017-04-22T05:38:50.480Z,9.24
2017-04-22T05:39:59.379Z,9.24
2017-04-22T05:41:08.296Z,9.3
2017-04-22T05:42:17.515Z,9.35
2017-04-22T05:43:26.730Z,9.34
2017-04-22T05:44:36.037Z,9.39
2017-04-22T05:45:44.939Z,9.35
2017-04-22T05:46:54.150Z,9.37
2017-04-22T05:48:03.689Z,9.34
2017-04-22T05:49:12.587Z,9.39
2017-04-22T05:50:21.489Z,9.44
2017-04-22T05:51:30.400Z,9.42
2017-04-22T05:52:39.932Z,9.5
2017-04-22T05:53:49.465Z,9.55
2017-04-22T05:54:58.225Z,9.52
2017-04-22T05:56:07.460Z,9.5
2017-04-22T05:57:16.053Z,9.56
2017-04-22T05:58:25.601Z,9.56
2017-04-22T05:59:35.128Z,9.62
2017-04-22T06:00:44.673Z,9.55
2017-04-22T06:01:53.884Z,9.57
2017-04-22T06:03:03.105Z,9.63
2017-04-22T06:04:12.010Z,9.71
2017-04-22T06:05:20.911Z,9.78
2017-04-22T06:06:30.142Z,9.84
2017-04-22T06:07:38.731Z,9.9
2017-04-22T06:08:47.954Z,9.92
2017-04-22T06:09:56.902Z,9.96
2017-04-22T06:11:06.112Z,9.98
2017-04-22T06:12:15.011Z,10
2017-04-22T06:13:24.560Z,10
2017-04-22T06:14:33.785Z,10.14
2017-04-22T06:15:42.798Z,10.17
2017-04-22T06:16:51.703Z,10.23
2017-04-22T06:18:00.929Z,10.28
2017-04-22T06:19:10.154Z,10.26
2017-04-22T06:20:19.563Z,10.41
2017-04-22T06:21:28.459Z,10.42
2017-04-22T06:22:38.000Z,10.51
2017-04-22T06:23:47.222Z,10.51
2017-04-22T06:24:55.806Z,10.58
2017-04-22T06:26:04.718Z,10.61
2017-04-22T06:27:13.620Z,10.67
2017-04-22T06:28:22.520Z,10.73
2017-04-22T06:29:32.223Z,10.77
2017-04-22T06:30:41.350Z,10.79
2017-04-22T06:31:50.579Z,10.8
2017-04-22T06:33:00.430Z,10.85
2017-04-22T06:34:09.590Z,10.87
2017-04-22T06:35:18.806Z,10.92
2017-04-22T06:36:27.708Z,11.03
2017-04-22T06:37:36.624Z,10.97
2017-04-22T06:38:45.522Z,10.97
2017-04-22T06:39:54.111Z,10.97
2017-04-22T06:41:02.706Z,10.98
2017-04-22T06:42:12.091Z,10.98
2017-04-22T06:43:21.356Z,11.06
2017-04-22T06:44:31.216Z,11.03
2017-04-22T06:45:40.054Z,11.05
2017-04-22T06:46:49.268Z,10.97
2017-04-22T06:47:58.491Z,11.05
2017-04-22T06:49:07.389Z,11.1
2017-04-22T06:50:16.942Z,11.03
2017-04-22T06:51:25.840Z,11.12
2017-04-22T06:52:34.747Z,11.13
2017-04-22T06:53:43.968Z,11.23
2017-04-22T06:54:53.197Z,11.23
2017-04-22T06:56:02.107Z,11.27
2017-04-22T06:57:11.322Z,11.27
2017-04-22T06:58:20.856Z,11.41
2017-04-22T06:59:30.394Z,11.49
2017-04-22T07:00:39.305Z,11.49
2017-04-22T07:01:48.531Z,11.52
2017-04-22T07:02:57.113Z,11.59
2017-04-22T07:04:06.653Z,11.64
2017-04-22T07:05:15.260Z,11.71
2017-04-22T07:06:23.848Z,11.61
2017-04-22T07:07:32.431Z,11.73
2017-04-22T07:08:41.653Z,11.86
2017-04-22T07:09:50.568Z,11.84
2017-04-22T07:10:59.797Z,11.81
2017-04-22T07:12:09.648Z,11.67
2017-04-22T07:13:18.560Z,11.63
2017-04-22T07:14:27.471Z,11.59
2017-04-22T07:15:37.005Z,11.34
2017-04-22T07:16:46.548Z,11.31
2017-04-22T07:17:56.509Z,11.24
2017-04-22T07:19:05.865Z,11.09
2017-04-22T07:20:14.766Z,11.08
2017-04-22T07:21:23.690Z,11.1
2017-04-22T07:22:32.904Z,11.09
2017-04-22T07:23:41.818Z,11
2017-04-22T07:24:50.732Z,11.08
2017-04-22T07:25:59.646Z,11.02
2017-04-22T07:27:08.807Z,11
2017-04-22T07:28:18.022Z,11.03
2017-04-22T07:29:27.570Z,10.98
2017-04-22T07:30:37.100Z,11.21
2017-04-22T07:31:46.000Z,11.34
2017-04-22T07:32:55.867Z,11.59
2017-04-22T07:34:05.090Z,11.66
2017-04-22T07:35:14.318Z,11.76
2017-04-22T07:36:23.234Z,11.98
2017-04-22T07:37:32.140Z,12.04
2017-04-22T07:38:41.572Z,12.08
2017-04-22T07:39:50.215Z,12.15
2017-04-22T07:40:59.292Z,12.08
2017-04-22T07:42:07.876Z,12.08
2017-04-22T07:43:16.871Z,12.04
2017-04-22T07:44:25.883Z,12.05
2017-04-22T07:45:35.400Z,12.15
2017-04-22T07:46:44.303Z,12.07
2017-04-22T07:47:53.201Z,12.15
2017-04-22T07:49:01.790Z,12.16
2017-04-22T07:50:10.701Z,12.1
2017-04-22T07:51:19.611Z,12.01
2017-04-22T07:52:28.197Z,11.95
2017-04-22T07:53:37.099Z,11.89
2017-04-22T07:54:46.319Z,12
2017-04-22T07:55:54.899Z,11.97
2017-04-22T07:57:04.113Z,11.95
2017-04-22T07:58:12.701Z,11.95
2017-04-22T07:59:21.613Z,12.01
2017-04-22T08:00:30.517Z,12.11
2017-04-22T08:01:39.417Z,12.16
2017-04-22T08:02:48.640Z,12.29
2017-04-22T08:03:57.550Z,12.53
2017-04-22T08:05:06.776Z,12.51
2017-04-22T08:06:15.678Z,12.52
2017-04-22T08:07:24.593Z,12.52
2017-04-22T08:08:33.804Z,12.38
2017-04-22T08:09:43.029Z,12.44
2017-04-22T08:10:51.610Z,12.38
2017-04-22T08:12:00.510Z,12.29
2017-04-22T08:13:09.750Z,12.33
2017-04-22T08:14:19.288Z,12.26
2017-04-22T08:15:28.195Z,12.29
2017-04-22T08:16:37.106Z,12.22
2017-04-22T08:17:45.694Z,12.29
2017-04-22T08:18:54.942Z,12.33
2017-04-22T08:20:04.806Z,12.41
2017-04-22T08:21:14.355Z,12.53
2017-04-22T08:22:23.589Z,12.65
2017-04-22T08:23:32.827Z,12.62
2017-04-22T08:24:42.377Z,12.66
2017-04-22T08:25:51.287Z,12.61
2017-04-22T08:27:00.543Z,12.66
2017-04-22T08:28:09.448Z,12.74
2017-04-22T08:29:18.992Z,12.66
2017-04-22T08:30:27.588Z,12.71
2017-04-22T08:31:36.181Z,12.81
2017-04-22T08:32:45.866Z,12.92
2017-04-22T08:33:55.096Z,12.94
2017-04-22T08:35:04.007Z,12.98
2017-04-22T08:36:13.556Z,13.1
2017-04-22T08:37:22.465Z,13.13
2017-04-22T08:38:31.377Z,13.19
2017-04-22T08:39:40.185Z,13.25
2017-04-22T08:40:48.789Z,13.25
2017-04-22T08:41:58.204Z,13.25
2017-04-22T08:43:07.238Z,13.21
2017-04-22T08:44:15.834Z,13.44
2017-04-22T08:45:24.889Z,13.36
2017-04-22T08:46:34.127Z,13.21
2017-04-22T08:47:42.728Z,13.02
2017-04-22T08:48:51.650Z,12.66
2017-04-22T08:50:00.585Z,12.01
2017-04-22T08:51:09.816Z,11.46
2017-04-22T08:52:19.826Z,10.97
2017-04-22T08:53:28.757Z,10.63
2017-04-22T08:54:37.395Z,10.35
2017-04-22T08:55:46.488Z,10.36
2017-04-22T08:56:55.461Z,10.25
2017-04-22T08:58:04.164Z,10.15
2017-04-22T08:59:13.399Z,10.17
2017-04-22T09:00:22.375Z,10.21
2017-04-22T09:01:31.973Z,10.32
2017-04-22T09:02:41.259Z,10.36
2017-04-22T09:03:50.182Z,10.51
2017-04-22T09:05:00.061Z,10.57
2017-04-22T09:06:08.987Z,10.65
2017-04-22T09:07:17.897Z,10.75
2017-04-22T09:08:27.173Z,10.75
2017-04-22T09:09:36.736Z,10.91
2017-04-22T09:10:45.740Z,10.95
2017-04-22T09:11:54.874Z,11.03
2017-04-22T09:13:04.622Z,11.16
2017-04-22T09:14:13.527Z,11.26
2017-04-22T09:15:22.461Z,11.21
2017-04-22T09:16:31.080Z,11.2
2017-04-22T09:17:40.631Z,11.1
2017-04-22T09:18:49.571Z,11.03
2017-04-22T09:19:58.485Z,11.03
2017-04-22T09:21:08.029Z,11.05
2017-04-22T09:22:17.271Z,11.09
2017-04-22T09:23:30.102Z,11.09
2017-04-22T09:24:39.378Z,11.18
2017-04-22T09:25:48.019Z,11.2
2017-04-22T09:26:57.259Z,11.26
2017-04-22T09:28:06.202Z,11.24
2017-04-22T09:29:15.464Z,11.39
2017-04-22T09:30:25.625Z,11.53
2017-04-22T09:31:35.347Z,11.86
2017-04-22T09:32:44.776Z,11.97
2017-04-22T09:33:54.320Z,11.89
2017-04-22T09:35:03.252Z,11.66
2017-04-22T09:36:12.471Z,11.35
2017-04-22T09:37:21.730Z,11.35
2017-04-22T09:38:31.032Z,11.27
2017-04-22T09:39:39.620Z,11.34
2017-04-22T09:40:48.848Z,11.35
2017-04-22T09:41:57.758Z,11.35
2017-04-22T09:43:06.673Z,11.43
2017-04-22T09:44:15.577Z,11.42
2017-04-22T09:45:24.858Z,11.39
2017-04-22T09:46:33.763Z,11.48
2017-04-22T09:47:42.661Z,11.49
2017-04-22T09:48:51.573Z,11.49
2017-04-22T09:50:00.800Z,11.51
2017-04-22T09:51:11.113Z,11.48
2017-04-22T09:52:20.333Z,11.51
2017-04-22T09:53:28.935Z,11.46
2017-04-22T09:54:37.671Z,11.51
2017-04-22T09:55:47.252Z,11.51
2017-04-22T09:56:56.152Z,11.52
2017-04-22T09:58:05.061Z,11.52
2017-04-22T09:59:14.283Z,11.45
2017-04-22T10:00:23.208Z,11.46
2017-04-22T10:01:32.427Z,11.57
2017-04-22T10:02:41.326Z,11.67
2017-04-22T10:03:50.551Z,11.79
2017-04-22T10:04:59.125Z,11.82
2017-04-22T10:06:08.001Z,11.88
2017-04-22T10:07:17.855Z,11.79
2017-04-22T10:08:26.769Z,11.86
2017-04-22T10:09:35.984Z,11.78
2017-04-22T10:10:45.026Z,11.75
2017-04-22T10:11:54.970Z,11.64
2017-04-22T10:13:04.003Z,11.82
2017-04-22T10:14:13.125Z,11.75
2017-04-22T10:15:22.041Z,11.79
2017-04-22T10:16:31.018Z,11.78
2017-04-22T10:17:40.281Z,11.86
2017-04-22T10:18:49.261Z,11.88
2017-04-22T10:19:58.179Z,11.95
2017-04-22T10:21:06.927Z,12.2
2017-04-22T10:22:16.281Z,12.38
2017-04-22T10:23:24.866Z,12.4
2017-04-22T10:24:34.094Z,12.61
2017-04-22T10:25:43.195Z,12.69
2017-04-22T10:26:52.336Z,12.8
2017-04-22T10:28:01.328Z,12.99
2017-04-22T10:29:10.435Z,13.2
2017-04-22T10:30:20.188Z,13.32
2017-04-22T10:31:29.120Z,13.4
2017-04-22T10:32:37.839Z,13.5
2017-04-22T10:33:47.150Z,13.51
2017-04-22T10:34:56.201Z,13.55
2017-04-22T10:36:05.158Z,13.58
2017-04-22T10:37:14.401Z,13.68
2017-04-22T10:38:23.623Z,13.73
2017-04-22T10:39:32.523Z,13.75
2017-04-22T10:40:41.435Z,13.81
2017-04-22T10:41:50.657Z,13.83
2017-04-22T10:42:59.608Z,13.86
2017-04-22T10:44:08.858Z,13.86
2017-04-22T10:45:18.091Z,13.75
2017-04-22T10:46:27.637Z,13.69
2017-04-22T10:47:36.586Z,13.72
2017-04-22T10:48:45.833Z,13.72
2017-04-22T10:49:55.389Z,13.78
2017-04-22T10:51:04.626Z,13.88
2017-04-22T10:52:14.403Z,13.99
2017-04-22T10:53:23.319Z,13.95
2017-04-22T10:54:32.244Z,13.99
2017-04-22T10:55:41.172Z,13.93
2017-04-22T10:56:49.765Z,13.83
2017-04-22T10:57:58.668Z,13.75
2017-04-22T10:59:07.248Z,13.6
2017-04-22T11:00:15.847Z,13.45
2017-04-22T11:01:25.072Z,13.5
2017-04-22T11:02:34.292Z,13.55
2017-04-22T11:03:42.896Z,13.55
2017-04-22T11:04:52.119Z,13.45
2017-04-22T11:06:01.359Z,13.47
2017-04-22T11:07:10.336Z,13.37
2017-04-22T11:08:19.318Z,13.25
2017-04-22T11:09:28.234Z,13.32
2017-04-22T11:10:37.465Z,13.19
2017-04-22T11:11:47.010Z,13.17
2017-04-22T11:12:55.924Z,13.1
2017-04-22T11:14:05.523Z,12.92
2017-04-22T11:15:14.761Z,12.74
2017-04-22T11:16:23.353Z,12.56
2017-04-22T11:17:32.252Z,12.36
2017-04-22T11:18:41.487Z,12.18
2017-04-22T11:19:50.082Z,12.25
2017-04-22T11:20:59.399Z,12.25
2017-04-22T11:22:08.478Z,12.26
2017-04-22T11:23:17.070Z,12.28
2017-04-22T11:24:25.996Z,12.29
2017-04-22T11:25:34.609Z,12.43
2017-04-22T11:26:43.538Z,12.37
2017-04-22T11:27:52.765Z,12.43
2017-04-22T11:29:01.895Z,12.55
2017-04-22T11:30:11.123Z,12.7
2017-04-22T11:31:20.805Z,12.74
2017-04-22T11:32:29.519Z,12.8
2017-04-22T11:33:38.127Z,12.88
2017-04-22T11:34:47.064Z,12.91
2017-04-22T11:35:56.440Z,12.98
2017-04-22T11:37:05.668Z,12.99
2017-04-22T11:38:15.556Z,13.07
2017-04-22T11:39:24.226Z,13.07
2017-04-22T11:40:33.320Z,12.96
2017-04-22T11:41:42.604Z,13.01
2017-04-22T11:42:51.222Z,12.99
2017-04-22T11:44:00.238Z,13.03
2017-04-22T11:45:10.363Z,13.06
2017-04-22T11:46:19.378Z,13.1
2017-04-22T11:47:28.616Z,13.01
2017-04-22T11:48:37.533Z,13.14
2017-04-22T11:49:46.140Z,13.14
2017-04-22T11:50:55.050Z,13.28
2017-04-22T11:52:04.593Z,13.16
2017-04-22T11:53:14.154Z,13.28
2017-04-22T11:54:23.493Z,13.27
2017-04-22T11:55:32.417Z,13.27
2017-04-22T11:56:41.483Z,13.36
2017-04-22T11:57:50.076Z,13.44
2017-04-22T11:58:58.992Z,13.48
2017-04-22T12:00:07.897Z,13.62
2017-04-22T12:01:17.166Z,13.63
2017-04-22T12:02:26.740Z,13.76
2017-04-22T12:03:35.372Z,13.91
2017-04-22T12:04:44.597Z,13.87
2017-04-22T12:05:53.529Z,13.7
2017-04-22T12:07:02.435Z,13.66
2017-04-22T12:08:11.339Z,13.6
2017-04-22T12:09:20.872Z,13.55
2017-04-22T12:10:30.106Z,13.54
2017-04-22T12:11:38.705Z,13.51
2017-04-22T12:12:47.819Z,13.48
2017-04-22T12:13:57.055Z,13.45
2017-04-22T12:15:05.651Z,13.39
2017-04-22T12:16:14.887Z,13.36
2017-04-22T12:17:23.803Z,13.36
2017-04-22T12:18:32.394Z,13.32
2017-04-22T12:19:41.321Z,13.31
2017-04-22T12:20:49.926Z,13.2
2017-04-22T12:21:58.525Z,13.27
2017-04-22T12:23:07.443Z,13.28
2017-04-22T12:24:16.746Z,13.36
2017-04-22T12:25:25.984Z,13.39
2017-04-22T12:26:34.909Z,13.35
2017-04-22T12:27:44.144Z,13.39
2017-04-22T12:28:53.370Z,13.4
2017-04-22T12:30:02.915Z,13.5
2017-04-22T12:31:11.512Z,13.62
2017-04-22T12:32:20.425Z,13.76
2017-04-22T12:33:29.665Z,13.87
2017-04-22T12:34:38.412Z,13.84
2017-04-22T12:35:47.324Z,13.95
2017-04-22T12:36:56.838Z,14.09
2017-04-22T12:38:07.221Z,14.16
2017-04-22T12:39:16.164Z,14.15
2017-04-22T12:40:25.077Z,14.27
2017-04-22T12:41:34.299Z,14.31
2017-04-22T12:42:42.896Z,14.26
2017-04-22T12:43:53.065Z,14.31
2017-04-22T12:45:01.969Z,14.31
2017-04-22T12:46:11.200Z,14.26
2017-04-22T12:47:20.749Z,14.27
2017-04-22T12:48:29.650Z,14.24
2017-04-22T12:49:38.590Z,14.3
2017-04-22T12:50:48.124Z,14.2
2017-04-22T12:51:56.715Z,14.09
2017-04-22T12:53:05.946Z,14.09
2017-04-22T12:54:15.175Z,14.13
2017-04-22T12:55:24.077Z,14.03
2017-04-22T12:56:32.980Z,14.16
2017-04-22T12:57:42.197Z,14.27
2017-04-22T12:58:50.792Z,14.26
2017-04-22T13:00:00.660Z,14.24
2017-04-22T13:01:09.262Z,14.33
2017-04-22T13:02:18.518Z,14.48
2017-04-22T13:03:28.072Z,14.52
2017-04-22T13:04:37.392Z,14.51
2017-04-22T13:05:46.699Z,14.51
2017-04-22T13:06:55.286Z,14.48
2017-04-22T13:08:04.202Z,14.42
2017-04-22T13:09:13.428Z,14.33
2017-04-22T13:10:22.654Z,14.3
2017-04-22T13:11:31.883Z,14.24
2017-04-22T13:12:41.122Z,14.2
2017-04-22T13:13:50.030Z,14.03
2017-04-22T13:14:59.266Z,14.02
2017-04-22T13:16:08.491Z,14.05
2017-04-22T13:17:17.764Z,13.95
2017-04-22T13:18:26.716Z,13.93
2017-04-22T13:19:35.974Z,13.91
2017-04-22T13:20:45.542Z,13.76
2017-04-22T13:21:54.449Z,13.72
2017-04-22T13:23:03.129Z,13.63
2017-04-22T13:24:12.225Z,13.66
2017-04-22T13:25:20.824Z,13.47
2017-04-22T13:26:30.687Z,13.35
2017-04-22T13:27:39.908Z,13.25
2017-04-22T13:28:48.817Z,13.42
2017-04-22T13:29:57.732Z,13.5
2017-04-22T13:31:06.639Z,13.55
2017-04-22T13:32:15.866Z,13.62
2017-04-22T13:33:24.457Z,13.69
2017-04-22T13:34:33.368Z,13.73
2017-04-22T13:35:43.252Z,13.79
2017-04-22T13:36:52.791Z,13.88
2017-04-22T13:38:02.334Z,14.02
2017-04-22T13:39:11.555Z,14.06
2017-04-22T13:40:20.139Z,14.19
2017-04-22T13:41:29.056Z,14.21
2017-04-22T13:42:38.084Z,14.23
2017-04-22T13:43:47.937Z,14.23
2017-04-22T13:44:57.155Z,14.21
2017-04-22T13:46:06.065Z,14.09
2017-04-22T13:47:14.968Z,13.99
2017-04-22T13:48:23.884Z,13.91
2017-04-22T13:49:33.107Z,13.79
2017-04-22T13:50:42.019Z,13.83
2017-04-22T13:51:50.930Z,13.76
2017-04-22T13:53:00.496Z,13.69
2017-04-22T13:54:09.580Z,13.65
2017-04-22T13:55:18.165Z,13.6
2017-04-22T13:56:27.067Z,13.51
2017-04-22T13:57:36.309Z,13.45
2017-04-22T13:58:45.862Z,13.42
2017-04-22T13:59:55.084Z,13.27
2017-04-22T14:01:04.044Z,13.45
2017-04-22T14:02:12.943Z,13.45
2017-04-22T14:03:22.240Z,13.57
2017-04-22T14:04:30.846Z,13.6
2017-04-22T14:05:39.787Z,13.75
2017-04-22T14:06:48.698Z,13.87
2017-04-22T14:07:57.614Z,13.86
2017-04-22T14:09:06.535Z,13.93
2017-04-22T14:10:15.773Z,13.87
2017-04-22T14:11:24.371Z,14.01
2017-04-22T14:12:33.618Z,14.03
2017-04-22T14:13:43.161Z,14.02
2017-04-22T14:14:52.239Z,14.05
2017-04-22T14:16:01.472Z,14.03
2017-04-22T14:17:10.085Z,13.95
2017-04-22T14:18:19.375Z,13.87
2017-04-22T14:19:28.439Z,13.91
2017-04-22T14:20:37.358Z,13.86
2017-04-22T14:21:46.578Z,13.91
2017-04-22T14:22:55.809Z,14.08
2017-04-22T14:24:05.669Z,14.03
2017-04-22T14:25:14.895Z,14.12
2017-04-22T14:26:23.521Z,14.2
2017-04-22T14:27:32.768Z,14.08
2017-04-22T14:28:41.391Z,14.03
2017-04-22T14:29:51.011Z,13.97
2017-04-22T14:31:00.012Z,14.05
2017-04-22T14:32:08.602Z,14.01
2017-04-22T14:33:17.515Z,14.02
2017-04-22T14:34:26.422Z,14.01
2017-04-22T14:35:35.338Z,14.02
2017-04-22T14:36:44.258Z,13.91
2017-04-22T14:37:53.297Z,13.86
2017-04-22T14:39:02.606Z,13.76
2017-04-22T14:40:11.525Z,13.81
2017-04-22T14:41:20.660Z,13.95
2017-04-22T14:42:29.710Z,13.84
2017-04-22T14:43:39.266Z,13.87
2017-04-22T14:44:48.498Z,13.83
2017-04-22T14:45:57.415Z,13.84
2017-04-22T14:47:06.332Z,13.86
2017-04-22T14:48:15.252Z,13.81
2017-04-22T14:49:24.157Z,13.87
2017-04-22T14:50:33.052Z,13.79
2017-04-22T14:51:41.663Z,13.88
2017-04-22T14:52:50.900Z,13.94
2017-04-22T14:54:00.138Z,13.88
2017-04-22T14:55:09.052Z,13.84
2017-04-22T14:56:17.958Z,13.7
2017-04-22T14:57:27.517Z,13.62
2017-04-22T14:58:36.489Z,13.55
2017-04-22T14:59:45.779Z,13.58
2017-04-22T15:00:55.805Z,13.6
2017-04-22T15:02:05.187Z,13.55